Time;durP1;ratioP1;P1;durP2;ratioP2;P2;SDS_P1;SDS_P2;PMS_P1;PMS_P2;Temp;Humidity;BMP_temperature;BMP_pressure;BME280_temperature;BME280_humidity;BME280_pressure;Samples;Min_cycle;Max_cycle;Signal;HPM_P1;HPM_P2
2023/06/28 00:00:15;;;;;;;8.18;3.20;;;14.40;99.90;;;;;;4984636;28;20050;-66
2023/06/28 00:02:42;;;;;;;10.55;3.58;;;14.40;99.90;;;;;;4984471;28;20393;-63
2023/06/28 00:05:09;;;;;;;8.15;3.40;;;14.30;99.90;;;;;;4984115;28;20054;-66
2023/06/28 00:07:35;;;;;;;10.02;3.63;;;14.30;99.90;;;;;;4985113;28;20165;-61
2023/06/28 00:10:02;;;;;;;7.55;3.60;;;14.30;99.90;;;;;;4984927;28;20097;-68
2023/06/28 00:12:30;;;;;;;8.27;3.50;;;14.30;99.90;;;;;;4984533;28;20375;-65
2023/06/28 00:14:56;;;;;;;9.75;3.50;;;14.40;99.90;;;;;;4984335;28;20042;-60
2023/06/28 00:17:28;;;;;;;10.25;3.90;;;14.80;99.90;;;;;;4984622;28;20057;-61
2023/06/28 00:19:58;;;;;;;12.00;3.35;;;14.40;99.90;;;;;;4982903;28;20125;-66
2023/06/28 00:22:30;;;;;;;8.88;3.80;;;14.40;99.90;;;;;;4984683;28;20437;-66
2023/06/28 00:24:57;;;;;;;6.85;3.30;;;14.40;99.90;;;;;;4984051;28;20454;-60
2023/06/28 00:27:23;;;;;;;8.85;3.60;;;14.40;99.90;;;;;;4983663;28;20050;-63
2023/06/28 00:29:48;;;;;;;10.43;3.97;;;14.30;99.90;;;;;;4985110;28;20034;-64
2023/06/28 00:32:14;;;;;;;12.25;3.80;;;14.30;99.90;;;;;;4983058;28;20125;-62
2023/06/28 00:34:40;;;;;;;10.13;3.63;;;14.30;99.90;;;;;;4983587;28;20724;-57
2023/06/28 00:37:06;;;;;;;11.93;3.60;;;14.30;99.90;;;;;;4984613;28;20722;-57
2023/06/28 00:39:33;;;;;;;9.90;4.05;;;14.30;99.90;;;;;;4984160;28;20035;-66
2023/06/28 00:41:58;;;;;;;10.95;3.85;;;14.30;99.90;;;;;;4984188;28;20057;-62
2023/06/28 00:44:24;;;;;;;8.13;3.63;;;14.30;99.90;;;;;;4984181;28;20042;-64
2023/06/28 00:46:50;;;;;;;11.65;3.60;;;14.20;99.90;;;;;;4984266;28;20039;-66
2023/06/28 00:49:16;;;;;;;10.50;4.15;;;14.20;99.90;;;;;;4983476;28;20057;-60
2023/06/28 00:51:43;;;;;;;9.43;3.97;;;14.20;99.90;;;;;;4983137;28;20053;-66
2023/06/28 00:54:09;;;;;;;10.25;3.95;;;14.10;99.90;;;;;;4984266;28;20046;-65
2023/06/28 00:56:37;;;;;;;10.30;3.75;;;14.10;99.90;;;;;;4984432;28;20390;-60
2023/06/28 00:59:03;;;;;;;8.63;4.15;;;14.00;99.90;;;;;;4983909;28;20046;-62
2023/06/28 01:01:30;;;;;;;9.90;4.70;;;14.00;99.90;;;;;;4984103;28;20074;-60
2023/06/28 01:03:57;;;;;;;9.10;4.18;;;14.00;99.90;;;;;;4982588;28;20057;-63
2023/06/28 01:06:25;;;;;;;9.15;4.50;;;14.00;99.90;;;;;;4982299;28;20050;-63
2023/06/28 01:08:51;;;;;;;10.57;4.30;;;14.10;99.90;;;;;;4982838;28;20054;-63
2023/06/28 01:11:18;;;;;;;10.88;4.25;;;14.00;99.90;;;;;;5047971;23;20054;-55
2023/06/28 01:13:45;;;;;;;10.90;4.78;;;13.90;99.90;;;;;;4945487;28;20677;-54
2023/06/28 01:16:10;;;;;;;11.30;4.43;;;13.80;99.90;;;;;;4954394;28;20097;-56
2023/06/28 01:18:36;;;;;;;11.18;4.85;;;14.00;99.90;;;;;;4963100;28;20047;-55
2023/06/28 01:21:06;;;;;;;9.80;4.95;;;13.80;99.90;;;;;;4964300;28;20066;-56
2023/06/28 01:23:33;;;;;;;10.77;4.70;;;13.80;99.90;;;;;;4963755;28;20047;-55
2023/06/28 01:26:02;;;;;;;11.85;5.00;;;13.80;99.90;;;;;;4963700;28;20061;-55
2023/06/28 01:28:30;;;;;;;13.35;5.03;;;13.80;99.90;;;;;;4964490;28;21078;-55
2023/06/28 01:30:57;;;;;;;11.75;4.50;;;13.80;99.90;;;;;;4963040;28;20054;-56
2023/06/28 01:33:23;;;;;;;11.45;4.50;;;13.80;99.90;;;;;;4966124;28;20085;-54
2023/06/28 01:35:49;;;;;;;9.23;4.80;;;13.80;99.90;;;;;;4967096;28;20082;-54
2023/06/28 01:38:15;;;;;;;9.18;4.78;;;13.80;99.90;;;;;;4968151;28;20054;-54
2023/06/28 01:40:42;;;;;;;8.50;4.65;;;13.80;99.90;;;;;;4958236;28;20057;-56
2023/06/28 01:43:08;;;;;;;12.10;5.55;;;13.40;99.90;;;;;;4954117;28;20047;-55
2023/06/28 01:45:34;;;;;;;10.90;5.10;;;13.80;99.90;;;;;;4949064;28;20134;-55
2023/06/28 01:48:00;;;;;;;8.77;5.07;;;13.80;99.90;;;;;;4947736;28;20123;-56
2023/06/28 01:50:27;;;;;;;10.60;5.15;;;13.80;99.90;;;;;;4948213;28;20039;-56
2023/06/28 01:52:55;;;;;;;11.35;5.45;;;13.80;99.90;;;;;;4949195;28;20375;-56
2023/06/28 01:55:20;;;;;;;12.35;5.05;;;13.80;99.90;;;;;;4947815;28;20035;-55
2023/06/28 01:57:47;;;;;;;13.50;5.20;;;13.80;99.90;;;;;;4948758;28;20861;-56
2023/06/28 02:00:15;;;;;;;10.25;5.25;;;13.80;99.90;;;;;;4948641;28;20047;-53
2023/06/28 02:02:41;;;;;;;12.00;4.75;;;13.80;99.90;;;;;;4948217;28;20050;-55
2023/06/28 02:05:07;;;;;;;12.75;5.07;;;13.80;99.90;;;;;;4946450;28;20055;-54
2023/06/28 02:07:32;;;;;;;12.00;4.93;;;13.80;99.90;;;;;;4948317;28;20050;-56
2023/06/28 02:09:58;;;;;;;11.27;5.32;;;13.80;99.90;;;;;;4947721;28;20054;-56
2023/06/28 02:12:24;;;;;;;12.15;5.40;;;14.40;99.90;;;;;;4946857;28;20066;-56
2023/06/28 02:14:51;;;;;;;12.02;5.70;;;13.70;99.90;;;;;;4947755;28;20889;-55
2023/06/28 02:17:20;;;;;;;12.90;5.70;;;13.80;99.90;;;;;;4946951;28;20134;-55
2023/06/28 02:19:47;;;;;;;10.88;5.78;;;13.80;99.90;;;;;;4946909;28;20142;-55
2023/06/28 02:22:13;;;;;;;12.07;6.25;;;13.80;99.90;;;;;;4946433;28;20058;-54
2023/06/28 02:24:39;;;;;;;14.73;6.10;;;13.80;99.90;;;;;;4945647;28;20438;-54
2023/06/28 02:27:05;;;;;;;14.13;6.03;;;13.80;99.90;;;;;;4946376;28;20044;-53
2023/06/28 02:29:30;;;;;;;13.85;6.00;;;13.80;99.90;;;;;;4946780;28;20334;-57
2023/06/28 02:31:57;;;;;;;9.23;5.43;;;13.80;99.90;;;;;;4946949;28;20692;-53
2023/06/28 02:34:22;;;;;;;10.63;5.95;;;13.80;99.90;;;;;;4945855;28;20104;-54
2023/06/28 02:36:48;;;;;;;12.23;6.43;;;13.70;99.90;;;;;;4947232;28;20082;-53
2023/06/28 02:39:14;;;;;;;11.63;6.07;;;13.90;99.90;;;;;;4947297;28;20477;-53
2023/06/28 02:41:39;;;;;;;14.38;6.47;;;13.90;99.90;;;;;;4947215;28;20532;-54
2023/06/28 02:44:05;;;;;;;12.57;6.18;;;13.90;99.90;;;;;;4946683;28;20053;-54
2023/06/28 02:46:30;;;;;;;17.35;6.60;;;13.90;99.90;;;;;;4946446;28;20546;-53
2023/06/28 02:48:56;;;;;;;16.23;6.30;;;13.90;99.90;;;;;;4946307;28;20131;-53
2023/06/28 02:51:21;;;;;;;13.88;6.45;;;13.90;99.90;;;;;;4946331;28;20043;-54
2023/06/28 02:53:47;;;;;;;15.63;6.50;;;13.80;99.90;;;;;;4946239;28;20461;-53
2023/06/28 02:56:15;;;;;;;13.02;6.28;;;13.80;99.90;;;;;;4946504;28;20057;-57
2023/06/28 02:58:43;;;;;;;12.00;6.15;;;13.80;99.90;;;;;;4946820;28;20066;-54
2023/06/28 03:01:09;;;;;;;10.18;5.70;;;13.80;99.90;;;;;;4946747;28;20043;-54
2023/06/28 03:03:36;;;;;;;13.63;6.05;;;13.80;99.90;;;;;;4944811;28;20051;-57
2023/06/28 03:06:03;;;;;;;13.95;6.32;;;13.80;99.90;;;;;;4945402;28;20051;-57
2023/06/28 03:08:29;;;;;;;13.23;6.63;;;13.80;99.90;;;;;;4945558;28;20054;-53
2023/06/28 03:10:54;;;;;;;13.97;6.30;;;13.70;99.90;;;;;;4907700;28;1105562;-57
2023/06/28 03:13:20;;;;;;;12.95;6.25;;;13.80;99.90;;;;;;4947047;28;20370;-53
2023/06/28 03:15:46;;;;;;;13.50;6.07;;;13.80;99.90;;;;;;4947790;28;20047;-53
2023/06/28 03:18:11;;;;;;;13.82;6.57;;;13.80;99.90;;;;;;4947339;28;20054;-54
2023/06/28 03:20:37;;;;;;;14.82;6.47;;;13.80;99.90;;;;;;4946631;28;20046;-53
2023/06/28 03:23:03;;;;;;;12.65;5.25;;;13.90;99.90;;;;;;4947274;28;20725;-54
2023/06/28 03:25:29;;;;;;;10.30;5.82;;;13.80;99.90;;;;;;4947735;28;20122;-55
2023/06/28 03:27:56;;;;;;;11.55;6.07;;;13.90;99.90;;;;;;4946417;28;20122;-53
2023/06/28 03:30:22;;;;;;;11.70;6.35;;;13.90;99.90;;;;;;4947097;28;20054;-54
2023/06/28 03:32:47;;;;;;;13.23;6.45;;;13.90;99.90;;;;;;4947145;28;20051;-51
2023/06/28 03:35:13;;;;;;;12.82;6.05;;;13.90;99.90;;;;;;4946623;28;20057;-54
2023/06/28 03:37:39;;;;;;;10.35;6.32;;;13.90;99.90;;;;;;4946420;28;20051;-56
2023/06/28 03:40:05;;;;;;;13.15;6.05;;;13.90;99.90;;;;;;4946421;28;20054;-55
2023/06/28 03:42:31;;;;;;;13.52;6.70;;;13.90;99.90;;;;;;4947144;28;20050;-54
2023/06/28 03:44:57;;;;;;;12.30;6.07;;;13.90;99.90;;;;;;4946702;28;20413;-55
2023/06/28 03:47:22;;;;;;;11.98;6.03;;;13.80;99.90;;;;;;4945986;29;20058;-54
2023/06/28 03:49:48;;;;;;;12.48;7.07;;;13.90;99.90;;;;;;4946358;28;20121;-54
2023/06/28 03:52:13;;;;;;;12.02;6.38;;;13.90;99.90;;;;;;4947155;28;20047;-54
2023/06/28 03:54:39;;;;;;;10.88;6.28;;;13.90;99.90;;;;;;4946868;28;20640;-53
2023/06/28 03:57:05;;;;;;;13.60;6.53;;;13.90;99.90;;;;;;4946222;28;20122;-54
2023/06/28 03:59:31;;;;;;;13.90;6.50;;;13.90;99.90;;;;;;4947269;28;20035;-54
2023/06/28 04:01:57;;;;;;;10.98;6.13;;;13.90;99.90;;;;;;4945733;28;20053;-54
2023/06/28 04:04:22;;;;;;;10.07;6.07;;;13.90;99.90;;;;;;4946383;28;20138;-53
2023/06/28 04:06:48;;;;;;;14.45;6.57;;;14.00;99.90;;;;;;4945835;28;20469;-54
2023/06/28 04:09:15;;;;;;;14.18;6.20;;;14.00;99.90;;;;;;4946633;28;20087;-53
2023/06/28 04:11:41;;;;;;;15.15;6.72;;;14.00;99.90;;;;;;4946100;28;20062;-55
2023/06/28 04:14:07;;;;;;;10.82;6.55;;;14.30;99.90;;;;;;4945917;28;20589;-54
2023/06/28 04:16:33;;;;;;;13.13;6.40;;;14.00;99.90;;;;;;4946502;28;20118;-54
2023/06/28 04:19:00;;;;;;;12.00;6.30;;;14.20;99.90;;;;;;4945005;28;20094;-53
2023/06/28 04:21:26;;;;;;;16.65;6.50;;;14.00;99.90;;;;;;4946711;28;20047;-55
2023/06/28 04:23:51;;;;;;;14.95;6.40;;;14.00;99.90;;;;;;4945397;28;20062;-52
2023/06/28 04:26:19;;;;;;;15.32;6.28;;;14.30;99.90;;;;;;4945349;28;20043;-53
2023/06/28 04:28:44;;;;;;;15.15;6.38;;;14.20;99.90;;;;;;4946520;28;20055;-53
2023/06/28 04:31:10;;;;;;;13.88;6.70;;;14.20;99.90;;;;;;4944701;28;20554;-54
2023/06/28 04:33:36;;;;;;;10.73;6.00;;;14.30;99.90;;;;;;4944569;28;20055;-55
2023/06/28 04:36:02;;;;;;;11.43;6.22;;;14.30;99.90;;;;;;4945348;28;20110;-57
2023/06/28 04:38:32;;;;;;;12.23;6.32;;;14.30;99.90;;;;;;4946016;28;20047;-52
2023/06/28 04:41:00;;;;;;;10.75;6.40;;;14.30;99.90;;;;;;4945021;28;20058;-54
2023/06/28 04:43:26;;;;;;;11.80;5.63;;;14.40;99.90;;;;;;4943790;28;20053;-54
2023/06/28 04:45:55;;;;;;;11.75;6.53;;;14.30;99.90;;;;;;4945071;28;20050;-55
2023/06/28 04:48:21;;;;;;;12.07;6.07;;;14.40;99.90;;;;;;4945523;28;20043;-53
2023/06/28 04:50:47;;;;;;;12.35;6.13;;;14.40;99.90;;;;;;4945790;28;20540;-54
2023/06/28 04:53:13;;;;;;;11.98;5.72;;;14.30;99.90;;;;;;4946036;28;20099;-54
2023/06/28 04:55:38;;;;;;;12.85;6.07;;;14.40;99.90;;;;;;4945721;28;20446;-53
2023/06/28 04:58:05;;;;;;;12.52;5.65;;;14.50;99.90;;;;;;4944809;28;20106;-53
2023/06/28 05:00:33;;;;;;;10.30;5.85;;;14.50;99.90;;;;;;4945678;28;20445;-54
2023/06/28 05:03:02;;;;;;;12.13;6.28;;;14.50;99.90;;;;;;4944868;28;20069;-54
2023/06/28 05:05:29;;;;;;;10.13;6.20;;;14.50;99.90;;;;;;4945602;28;20054;-54
2023/06/28 05:07:55;;;;;;;13.18;5.97;;;14.50;99.90;;;;;;4946231;28;20043;-54
2023/06/28 05:10:22;;;;;;;13.52;6.45;;;14.50;99.90;;;;;;4949352;28;20131;-54
2023/06/28 05:12:51;;;;;;;9.73;6.10;;;14.50;99.90;;;;;;4950426;28;20061;-54
2023/06/28 05:15:18;;;;;;;11.52;6.35;;;14.50;99.90;;;;;;4949344;28;20062;-54
2023/06/28 05:17:44;;;;;;;12.60;6.13;;;14.50;99.90;;;;;;4948494;28;20043;-54
2023/06/28 05:20:10;;;;;;;11.65;5.88;;;14.60;99.90;;;;;;4949313;28;20735;-53
2023/06/28 05:22:42;;;;;;;11.63;6.15;;;14.60;99.90;;;;;;4947980;29;20043;-51
2023/06/28 05:25:08;;;;;;;13.45;5.75;;;14.70;99.90;;;;;;4949169;28;20046;-54
2023/06/28 05:27:34;;;;;;;9.73;5.65;;;14.70;99.90;;;;;;4949561;28;20063;-54
2023/06/28 05:30:00;;;;;;;8.40;5.65;;;14.60;99.90;;;;;;4950269;28;20039;-55
2023/06/28 05:32:25;;;;;;;10.90;5.85;;;14.60;99.90;;;;;;4958857;28;20078;-54
2023/06/28 05:34:51;;;;;;;10.68;5.80;;;14.60;99.90;;;;;;4950436;28;20046;-52
2023/06/28 05:37:16;;;;;;;7.72;5.28;;;14.60;99.90;;;;;;4949296;28;20097;-54
2023/06/28 05:39:42;;;;;;;11.52;6.28;;;14.70;99.90;;;;;;4948504;28;20503;-55
2023/06/28 05:42:08;;;;;;;9.70;5.38;;;14.70;99.90;;;;;;4949336;28;20036;-55
2023/06/28 05:44:33;;;;;;;9.02;4.97;;;14.80;99.90;;;;;;4948653;28;20043;-54
2023/06/28 05:46:59;;;;;;;11.98;5.70;;;14.70;99.90;;;;;;4947281;29;20050;-54
2023/06/28 05:49:24;;;;;;;10.05;5.93;;;14.80;99.90;;;;;;4946821;28;20532;-53
2023/06/28 05:51:50;;;;;;;11.20;5.75;;;14.80;99.90;;;;;;4948876;28;20501;-57
2023/06/28 05:54:16;;;;;;;12.23;5.53;;;14.80;99.90;;;;;;4948995;28;20058;-56
2023/06/28 05:56:42;;;;;;;14.80;5.63;;;14.80;99.90;;;;;;4948419;28;20175;-54
2023/06/28 05:59:08;;;;;;;11.80;5.50;;;14.90;99.90;;;;;;4948276;28;20122;-54
2023/06/28 06:01:33;;;;;;;11.70;5.30;;;14.90;99.90;;;;;;4947778;28;20171;-54
2023/06/28 06:03:59;;;;;;;9.75;5.38;;;14.90;99.90;;;;;;4947423;28;20522;-56
2023/06/28 06:06:25;;;;;;;9.32;5.38;;;14.90;99.90;;;;;;4948078;28;20131;-55
2023/06/28 06:08:50;;;;;;;11.13;5.53;;;15.00;99.90;;;;;;4948526;28;20355;-56
2023/06/28 06:11:16;;;;;;;8.95;4.88;;;15.10;99.90;;;;;;4948270;28;20146;-53
2023/06/28 06:13:42;;;;;;;8.70;4.85;;;15.00;99.90;;;;;;4947255;28;20051;-53
2023/06/28 06:16:07;;;;;;;11.82;4.78;;;15.00;99.90;;;;;;4948095;28;20043;-54
2023/06/28 06:18:36;;;;;;;11.15;5.10;;;15.10;99.90;;;;;;4946751;28;20047;-53
2023/06/28 06:21:02;;;;;;;7.07;4.60;;;15.20;99.90;;;;;;4947848;28;20723;-55
2023/06/28 06:23:27;;;;;;;9.27;5.18;;;15.30;99.90;;;;;;4947892;28;20127;-55
2023/06/28 06:25:53;;;;;;;7.68;3.97;;;15.30;99.90;;;;;;4946580;28;20047;-56
2023/06/28 06:28:18;;;;;;;6.60;4.50;;;15.40;99.90;;;;;;4948397;28;20052;-54
2023/06/28 06:30:44;;;;;;;7.75;4.32;;;15.30;99.90;;;;;;4947806;28;21048;-54
2023/06/28 06:33:10;;;;;;;6.65;4.10;;;15.40;99.90;;;;;;4946858;28;20147;-54
2023/06/28 06:35:35;;;;;;;6.63;3.95;;;15.40;99.90;;;;;;4948221;28;20055;-56
2023/06/28 06:38:01;;;;;;;9.30;3.85;;;15.60;99.90;;;;;;4946122;28;20407;-53
2023/06/28 06:40:26;;;;;;;7.25;4.05;;;15.60;99.90;;;;;;4946432;28;20047;-55
2023/06/28 06:42:52;;;;;;;8.70;4.43;;;15.60;99.90;;;;;;4947144;28;20541;-55
2023/06/28 06:45:19;;;;;;;9.82;4.18;;;15.70;99.90;;;;;;4947550;28;20047;-56
2023/06/28 06:47:45;;;;;;;9.98;4.20;;;15.70;99.90;;;;;;4945929;28;20093;-54
2023/06/28 06:50:11;;;;;;;10.48;4.38;;;15.80;99.90;;;;;;4947556;28;20043;-54
2023/06/28 06:52:38;;;;;;;11.20;4.70;;;15.90;99.90;;;;;;4946966;28;20055;-55
2023/06/28 06:55:04;;;;;;;7.50;4.55;;;15.80;99.90;;;;;;4947066;28;20413;-54
2023/06/28 06:57:30;;;;;;;7.93;4.40;;;15.90;99.90;;;;;;4947612;28;20434;-53
2023/06/28 06:59:55;;;;;;;9.10;4.68;;;15.90;99.90;;;;;;4945146;28;20117;-53
2023/06/28 07:02:21;;;;;;;10.30;4.85;;;16.10;99.90;;;;;;4944305;28;20047;-51
2023/06/28 07:04:48;;;;;;;9.75;4.82;;;16.10;99.90;;;;;;4963058;28;20053;-56
2023/06/28 07:07:13;;;;;;;8.32;4.97;;;16.10;99.90;;;;;;4963989;28;20049;-54
2023/06/28 07:09:39;;;;;;;7.38;4.65;;;16.10;99.90;;;;;;4964089;28;20039;-54
2023/06/28 07:12:05;;;;;;;8.23;4.80;;;16.10;99.90;;;;;;4962721;28;20097;-51
2023/06/28 07:14:31;;;;;;;10.35;4.72;;;16.10;99.90;;;;;;4964012;28;20043;-52
2023/06/28 07:16:56;;;;;;;9.40;5.20;;;16.20;99.90;;;;;;4963989;28;20047;-54
2023/06/28 07:19:22;;;;;;;10.73;4.95;;;16.20;99.90;;;;;;4963104;28;20047;-53
2023/06/28 07:21:48;;;;;;;9.50;5.40;;;16.20;99.90;;;;;;4963284;28;20077;-52
2023/06/28 07:24:13;;;;;;;12.95;5.10;;;16.20;99.90;;;;;;4963651;28;20037;-53
2023/06/28 07:26:39;;;;;;;10.20;5.30;;;16.30;99.90;;;;;;4963523;28;20398;-53
2023/06/28 07:29:04;;;;;;;7.15;5.03;;;16.30;99.90;;;;;;4962570;28;20105;-53
2023/06/28 07:31:30;;;;;;;9.57;5.40;;;16.40;99.90;;;;;;4962543;28;20606;-54
2023/06/28 07:33:57;;;;;;;9.05;5.10;;;16.40;99.90;;;;;;4944100;28;20110;-54
2023/06/28 07:36:22;;;;;;;9.77;5.30;;;16.50;99.90;;;;;;4944033;28;20035;-55
2023/06/28 07:38:49;;;;;;;11.48;5.70;;;16.50;99.90;;;;;;4943645;28;20510;-53
2023/06/28 07:41:15;;;;;;;10.70;5.68;;;16.60;99.90;;;;;;4944154;28;20233;-55
2023/06/28 07:43:41;;;;;;;9.48;5.40;;;16.60;99.90;;;;;;4944246;28;20090;-56
2023/06/28 07:46:07;;;;;;;8.80;5.05;;;16.60;99.90;;;;;;4944891;28;20462;-55
2023/06/28 07:48:32;;;;;;;10.88;5.35;;;16.70;99.90;;;;;;4951941;28;20035;-53
2023/06/28 07:50:58;;;;;;;10.23;5.32;;;16.70;99.90;;;;;;4953788;28;20046;-56
2023/06/28 07:53:24;;;;;;;13.48;5.78;;;16.80;99.90;;;;;;4951575;28;20411;-55
2023/06/28 07:55:49;;;;;;;10.65;5.43;;;16.80;99.90;;;;;;4953379;28;20142;-56
2023/06/28 07:58:15;;;;;;;9.40;4.95;;;16.80;99.90;;;;;;4953549;28;20039;-56
2023/06/28 08:00:41;;;;;;;11.73;5.28;;;16.80;99.90;;;;;;4943236;28;20043;-53
2023/06/28 08:03:06;;;;;;;9.90;5.22;;;16.80;99.90;;;;;;4952063;28;20508;-54
2023/06/28 08:05:32;;;;;;;10.73;5.65;;;16.80;99.90;;;;;;4944161;28;20043;-55
2023/06/28 08:07:58;;;;;;;9.40;5.10;;;16.70;99.90;;;;;;4943641;28;20438;-56
2023/06/28 08:10:25;;;;;;;8.93;4.78;;;16.80;99.90;;;;;;4943585;28;20043;-55
2023/06/28 08:12:51;;;;;;;10.35;5.22;;;16.80;99.90;;;;;;4942710;28;20082;-55
2023/06/28 08:15:18;;;;;;;10.70;5.40;;;16.80;99.90;;;;;;4943360;28;20050;-55
2023/06/28 08:17:44;;;;;;;12.52;5.22;;;16.80;99.90;;;;;;4942606;28;20506;-55
2023/06/28 08:20:10;;;;;;;8.75;4.90;;;16.70;99.90;;;;;;4942526;28;20039;-53
2023/06/28 08:22:35;;;;;;;11.85;6.00;;;16.80;99.90;;;;;;4943071;28;20125;-55
2023/06/28 08:25:01;;;;;;;10.65;5.32;;;16.80;99.90;;;;;;4943532;28;20054;-53
2023/06/28 08:27:26;;;;;;;11.65;5.63;;;16.80;99.90;;;;;;4943517;28;20047;-54
2023/06/28 08:29:52;;;;;;;10.13;5.90;;;16.80;99.90;;;;;;4942640;28;20035;-52
2023/06/28 08:32:18;;;;;;;9.10;5.75;;;16.80;99.90;;;;;;4942666;28;20043;-54
2023/06/28 08:34:43;;;;;;;11.27;5.65;;;16.80;99.90;;;;;;4941736;29;20177;-54
2023/06/28 08:37:09;;;;;;;10.45;5.88;;;16.70;99.90;;;;;;4942613;28;20079;-53
2023/06/28 08:39:38;;;;;;;13.15;6.07;;;16.80;99.90;;;;;;4943253;28;20047;-52
2023/06/28 08:42:04;;;;;;;9.48;5.78;;;16.70;99.90;;;;;;4941521;29;20313;-54
2023/06/28 08:44:32;;;;;;;12.45;6.22;;;16.70;99.90;;;;;;4942807;28;20078;-55
2023/06/28 08:46:59;;;;;;;11.60;6.28;;;16.70;99.90;;;;;;4943713;28;20395;-55
2023/06/28 08:49:25;;;;;;;14.15;6.60;;;16.60;99.90;;;;;;4942116;28;20109;-55
2023/06/28 08:51:53;;;;;;;11.48;6.78;;;16.60;99.90;;;;;;4943130;28;20053;-54
2023/06/28 08:54:20;;;;;;;13.40;6.93;;;16.60;99.90;;;;;;4942515;28;20085;-54
2023/06/28 08:56:47;;;;;;;12.10;7.20;;;16.80;99.90;;;;;;4942837;28;20561;-56
2023/06/28 08:59:13;;;;;;;9.93;6.53;;;16.80;99.90;;;;;;4942672;28;20086;-56
2023/06/28 09:01:38;;;;;;;11.23;6.82;;;16.80;99.90;;;;;;4942040;28;20079;-56
2023/06/28 09:04:05;;;;;;;12.40;6.85;;;16.70;99.90;;;;;;4942420;28;20358;-56
2023/06/28 09:06:31;;;;;;;10.73;6.88;;;16.60;99.90;;;;;;4943174;28;20101;-55
2023/06/28 09:08:58;;;;;;;11.18;6.90;;;16.80;99.90;;;;;;4942641;28;20074;-53
2023/06/28 09:11:25;;;;;;;13.82;7.78;;;16.80;99.90;;;;;;4942116;28;20442;-55
2023/06/28 09:13:51;;;;;;;14.65;8.18;;;16.90;99.90;;;;;;4940980;29;20059;-55
2023/06/28 09:16:17;;;;;;;12.65;7.95;;;16.70;99.90;;;;;;4942721;28;20264;-56
2023/06/28 09:18:43;;;;;;;13.13;8.25;;;16.70;99.90;;;;;;4941462;28;20347;-56
2023/06/28 09:21:08;;;;;;;13.52;8.55;;;16.80;99.90;;;;;;4942689;28;20039;-56
2023/06/28 09:23:34;;;;;;;12.52;8.20;;;16.70;99.90;;;;;;4942623;28;20228;-56
2023/06/28 09:26:00;;;;;;;13.00;8.23;;;16.70;99.90;;;;;;4942238;28;20510;-56
2023/06/28 09:28:34;;;;;;;13.02;8.90;;;16.70;99.90;;;;;;4942222;28;20044;-56
2023/06/28 09:31:01;;;;;;;15.95;8.80;;;16.70;99.90;;;;;;4943087;28;20058;-56
2023/06/28 09:33:27;;;;;;;15.18;8.50;;;16.80;99.90;;;;;;4941332;28;20074;-54
2023/06/28 09:35:57;;;;;;;15.43;9.00;;;16.80;99.90;;;;;;4942858;28;20588;-55
2023/06/28 09:38:23;;;;;;;12.20;8.48;;;16.90;99.90;;;;;;4942590;28;20054;-54
2023/06/28 09:40:55;;;;;;;11.80;8.80;;;16.90;99.90;;;;;;4941094;29;20043;-53
2023/06/28 09:43:22;;;;;;;17.55;8.98;;;16.90;99.90;;;;;;4942278;28;20478;-55
2023/06/28 09:45:49;;;;;;;12.93;8.85;;;17.20;99.90;;;;;;4942550;28;20039;-55
2023/06/28 09:48:14;;;;;;;12.85;8.90;;;17.00;99.90;;;;;;4941895;28;20047;-56
2023/06/28 09:50:44;;;;;;;12.15;8.98;;;17.30;99.90;;;;;;4941603;28;20102;-56
2023/06/28 09:53:21;;;;;;;14.00;8.85;;;17.10;99.90;;;;;;4942157;28;20489;-55
2023/06/28 09:55:49;;;;;;;13.77;9.38;;;17.00;99.90;;;;;;4945405;28;20470;-56
2023/06/28 09:58:17;;;;;;;14.82;9.77;;;17.00;99.90;;;;;;4946036;28;20054;-56
2023/06/28 10:00:48;;;;;;;13.73;9.68;;;16.90;99.90;;;;;;4946916;28;20138;-56
2023/06/28 10:03:15;;;;;;;15.02;9.90;;;17.00;99.90;;;;;;4963855;28;20047;-54
2023/06/28 10:05:43;;;;;;;14.55;9.57;;;17.10;99.90;;;;;;4954774;28;20118;-53
2023/06/28 10:08:10;;;;;;;11.88;9.02;;;17.10;99.90;;;;;;4959646;28;20054;-54
2023/06/28 10:10:38;;;;;;;10.73;8.73;;;17.10;99.90;;;;;;4965067;28;20047;-54
2023/06/28 10:13:06;;;;;;;12.77;8.77;;;17.70;99.90;;;;;;4948571;28;20142;-54
2023/06/28 10:15:37;;;;;;;12.75;8.57;;;17.20;99.90;;;;;;4945423;28;20051;-54
2023/06/28 10:18:03;;;;;;;12.75;9.18;;;17.20;99.90;;;;;;4945153;28;20035;-54
2023/06/28 10:20:29;;;;;;;11.40;9.02;;;17.10;99.90;;;;;;4945041;28;20050;-53
2023/06/28 10:22:56;;;;;;;13.05;8.50;;;17.20;99.90;;;;;;4946025;28;20389;-52
2023/06/28 10:25:22;;;;;;;12.40;8.57;;;17.30;99.90;;;;;;4964618;28;20046;-52
2023/06/28 10:27:49;;;;;;;12.48;8.88;;;17.40;99.90;;;;;;4964011;28;20034;-55
2023/06/28 10:30:15;;;;;;;11.32;8.32;;;17.40;99.90;;;;;;4963015;28;20051;-55
2023/06/28 10:32:43;;;;;;;12.77;8.82;;;17.40;99.90;;;;;;4963871;28;20049;-56
2023/06/28 10:35:09;;;;;;;10.98;8.23;;;17.40;99.90;;;;;;4963952;28;20049;-56
2023/06/28 10:37:35;;;;;;;11.98;8.23;;;17.50;99.90;;;;;;4964966;28;20058;-56
2023/06/28 10:40:01;;;;;;;12.07;8.32;;;17.40;99.90;;;;;;4964278;28;20099;-54
2023/06/28 10:42:40;;;;;;;13.50;8.75;;;17.50;99.90;;;;;;4964165;28;20075;-54
2023/06/28 10:45:08;;;;;;;12.35;8.25;;;17.40;99.90;;;;;;4964433;28;20468;-55
2023/06/28 10:47:34;;;;;;;12.07;8.52;;;17.40;99.90;;;;;;4963495;28;20389;-54
2023/06/28 10:50:09;;;;;;;10.88;8.02;;;17.50;99.90;;;;;;4957900;28;20307;-63
2023/06/28 10:52:45;;;;;;;10.07;8.10;;;17.60;99.90;;;;;;4945143;28;20687;-49
2023/06/28 10:55:13;;;;;;;11.10;8.10;;;17.70;99.90;;;;;;4944993;28;20050;-51
2023/06/28 10:57:39;;;;;;;11.48;8.38;;;17.80;99.90;;;;;;4944757;28;20129;-50
2023/06/28 11:00:32;;;;;;;10.30;7.93;;;17.80;99.90;;;;;;4950619;28;20546;-54
2023/06/28 11:03:03;;;;;;;11.70;8.35;;;17.80;99.90;;;;;;4947275;28;20059;-53
2023/06/28 11:05:36;;;;;;;11.63;8.30;;;17.80;99.90;;;;;;4943271;28;20043;-52
2023/06/28 11:08:15;;;;;;;12.27;9.63;;;17.90;99.90;;;;;;4944702;28;20125;-54
2023/06/28 11:10:44;;;;;;;12.80;9.30;;;17.90;99.90;;;;;;4944552;28;20145;-54
2023/06/28 11:13:14;;;;;;;11.05;9.55;;;17.90;99.90;;;;;;4944826;28;20387;-55
2023/06/28 11:15:44;;;;;;;14.00;9.65;;;17.90;99.90;;;;;;4944281;28;20051;-53
2023/06/28 11:18:19;;;;;;;12.50;9.82;;;17.90;99.90;;;;;;4942543;28;20055;-55
2023/06/28 11:20:53;;;;;;;13.05;10.20;;;17.80;99.90;;;;;;4943204;29;20486;-51
2023/06/28 11:23:48;;;;;;;12.03;9.63;;;17.90;99.90;;;;;;4944474;28;20340;-54
2023/06/28 11:26:18;;;;;;;13.98;9.43;;;17.90;99.90;;;;;;4933981;29;20438;-52
2023/06/28 11:28:54;;;;;;;13.80;10.23;;;17.90;99.90;;;;;;4944424;28;20051;-53
2023/06/28 11:31:25;;;;;;;14.48;11.05;;;17.80;99.90;;;;;;4944531;28;20105;-55
2023/06/28 11:33:54;;;;;;;14.93;11.48;;;17.80;99.90;;;;;;4948124;28;20039;-54
2023/06/28 11:36:23;;;;;;;17.35;11.77;;;17.80;99.90;;;;;;4944672;28;20439;-55
2023/06/28 11:38:50;;;;;;;14.73;12.10;;;17.80;99.90;;;;;;4943877;28;20047;-55
2023/06/28 11:41:16;;;;;;;16.15;11.65;;;17.80;99.90;;;;;;4961623;28;20039;-54
2023/06/28 11:43:46;;;;;;;15.38;11.80;;;17.80;99.90;;;;;;4962702;28;20051;-54
2023/06/28 11:46:20;;;;;;;16.40;11.65;;;17.80;99.90;;;;;;4963450;28;20476;-54
2023/06/28 11:48:49;;;;;;;16.13;12.38;;;17.80;99.90;;;;;;4962198;28;20463;-52
2023/06/28 11:51:15;;;;;;;15.68;12.35;;;17.80;99.90;;;;;;4962659;28;20367;-54
2023/06/28 11:53:42;;;;;;;16.75;12.73;;;17.80;99.90;;;;;;4961493;28;20097;-53
2023/06/28 11:56:08;;;;;;;15.80;13.25;;;17.80;99.90;;;;;;4962079;28;20089;-54
2023/06/28 11:58:35;;;;;;;15.50;12.10;;;17.70;99.90;;;;;;4962365;28;20078;-55
2023/06/28 12:01:03;;;;;;;17.35;12.68;;;17.70;99.90;;;;;;4960962;28;20050;-54
2023/06/28 12:03:33;;;;;;;19.65;13.25;;;17.70;99.90;;;;;;4960460;28;20074;-54
2023/06/28 12:06:00;;;;;;;18.00;13.45;;;17.80;99.90;;;;;;4960651;28;20051;-55
2023/06/28 12:08:31;;;;;;;19.48;13.20;;;17.70;99.90;;;;;;4962825;28;20042;-54
2023/06/28 12:10:57;;;;;;;18.25;13.20;;;17.70;99.90;;;;;;4961035;28;20047;-53
2023/06/28 12:13:23;;;;;;;16.38;13.13;;;17.80;99.90;;;;;;4962327;28;20118;-55
2023/06/28 12:15:49;;;;;;;16.75;12.70;;;17.70;99.90;;;;;;4962904;28;20078;-55
2023/06/28 12:18:15;;;;;;;21.52;13.68;;;17.80;99.90;;;;;;4961993;28;20431;-56
2023/06/28 12:20:41;;;;;;;18.50;13.35;;;18.00;99.90;;;;;;4961197;28;20039;-53
2023/06/28 12:23:13;;;;;;;17.67;13.23;;;17.90;99.90;;;;;;4963008;28;20049;-52
2023/06/28 12:25:43;;;;;;;19.55;13.07;;;17.80;99.90;;;;;;4962989;28;20452;-55
2023/06/28 12:28:12;;;;;;;19.23;13.35;;;17.90;99.90;;;;;;4962352;28;20053;-55
2023/06/28 12:30:38;;;;;;;17.23;13.43;;;17.90;99.90;;;;;;4962494;28;20093;-55
2023/06/28 12:33:06;;;;;;;17.05;13.48;;;17.90;99.90;;;;;;4961890;28;20050;-55
2023/06/28 12:35:32;;;;;;;18.02;13.82;;;17.90;99.90;;;;;;4961971;28;20046;-54